Time;durP1;ratioP1;P1;durP2;ratioP2;P2;SDS_P1;SDS_P2;PMS_P1;PMS_P2;Temp;Humidity;BMP_temperature;BMP_pressure;BME280_temperature;BME280_humidity;BME280_pressure;Samples;Min_cycle;Max_cycle;Signal;HPM_P1;HPM_P2
2021/11/25 00:02:19;;;;;;;9.40;7.05;;;11.40;86.00;;;;;;4976601;28;20031;-77
2021/11/25 00:04:44;;;;;;;10.05;6.97;;;11.40;85.90;;;;;;4975357;28;20023;-77
2021/11/25 00:07:10;;;;;;;10.65;7.57;;;11.40;85.90;;;;;;4976237;28;20058;-78
2021/11/25 00:09:37;;;;;;;9.52;7.10;;;11.40;85.90;;;;;;4975363;28;20027;-76
2021/11/25 00:12:03;;;;;;;11.32;7.50;;;11.40;85.90;;;;;;4976449;28;20027;-78
2021/11/25 00:14:29;;;;;;;8.80;6.53;;;11.40;85.90;;;;;;4975271;28;20030;-76
2021/11/25 00:16:54;;;;;;;10.93;6.88;;;11.30;85.90;;;;;;4974779;28;20055;-76
2021/11/25 00:19:20;;;;;;;9.68;6.60;;;11.40;85.90;;;;;;4974986;28;20023;-76
2021/11/25 00:21:45;;;;;;;10.82;7.00;;;11.30;85.90;;;;;;4976271;28;20086;-76
2021/11/25 00:24:11;;;;;;;12.63;7.50;;;11.40;85.90;;;;;;4975059;28;20105;-77
2021/11/25 00:26:37;;;;;;;11.82;7.35;;;11.30;85.90;;;;;;4974869;28;20026;-75
2021/11/25 00:29:04;;;;;;;9.40;6.80;;;11.40;86.00;;;;;;4974850;28;20030;-76
2021/11/25 00:31:30;;;;;;;11.15;6.72;;;11.20;85.90;;;;;;4975953;28;20078;-76
2021/11/25 00:33:56;;;;;;;19.90;8.20;;;11.30;85.90;;;;;;4974801;28;20428;-76
2021/11/25 00:36:22;;;;;;;9.15;6.70;;;11.40;86.00;;;;;;4974838;28;20042;-76
2021/11/25 00:38:48;;;;;;;10.40;7.30;;;11.30;85.90;;;;;;4974492;28;20117;-76
2021/11/25 00:41:14;;;;;;;10.07;6.47;;;11.30;85.90;;;;;;4974595;28;20035;-77
2021/11/25 00:43:40;;;;;;;10.85;6.90;;;11.30;85.90;;;;;;4974828;28;20031;-76
2021/11/25 00:46:06;;;;;;;11.32;7.18;;;11.30;85.90;;;;;;4974570;28;20034;-76
2021/11/25 00:48:32;;;;;;;10.63;6.50;;;11.30;85.90;;;;;;4974323;28;20059;-76
2021/11/25 00:50:58;;;;;;;10.10;6.75;;;11.30;85.90;;;;;;4975656;28;20034;-76
2021/11/25 00:53:24;;;;;;;10.00;6.57;;;11.30;85.90;;;;;;4974404;28;20026;-76
2021/11/25 00:55:49;;;;;;;10.05;6.97;;;11.30;85.80;;;;;;4975585;28;20113;-76
2021/11/25 00:58:17;;;;;;;10.10;6.70;;;11.30;85.80;;;;;;4974199;28;20118;-76
2021/11/25 01:00:42;;;;;;;9.90;6.53;;;11.30;85.90;;;;;;4974241;28;20431;-76
2021/11/25 01:03:08;;;;;;;12.32;7.30;;;11.30;85.90;;;;;;4974463;28;20031;-76
2021/11/25 01:05:35;;;;;;;11.82;6.60;;;11.30;85.80;;;;;;4974323;28;20081;-76
2021/11/25 01:08:00;;;;;;;10.00;6.82;;;11.40;85.90;;;;;;4975278;28;20019;-76
2021/11/25 01:10:26;;;;;;;11.50;6.85;;;11.30;85.90;;;;;;4974111;28;20410;-77
2021/11/25 01:12:54;;;;;;;17.65;7.28;;;11.40;85.90;;;;;;4974042;28;20122;-76
2021/11/25 01:15:29;;;;;;;12.07;6.63;;;11.30;85.90;;;;;;4975250;28;20026;-76
2021/11/25 01:17:58;;;;;;;11.02;6.28;;;11.30;85.80;;;;;;4975005;28;20041;-76
2021/11/25 01:20:24;;;;;;;11.13;6.47;;;11.30;85.90;;;;;;4974070;28;20033;-76
2021/11/25 01:22:50;;;;;;;9.98;6.30;;;11.30;85.90;;;;;;4975110;28;20531;-76
2021/11/25 01:25:15;;;;;;;10.20;6.55;;;11.30;85.90;;;;;;4975061;28;20053;-76
2021/11/25 01:27:41;;;;;;;11.50;6.25;;;11.40;86.20;;;;;;4973521;28;20059;-77
2021/11/25 01:30:08;;;;;;;9.57;6.60;;;11.30;86.50;;;;;;4974511;28;20087;-77
2021/11/25 01:32:34;;;;;;;11.70;6.32;;;11.30;86.40;;;;;;4974866;28;20085;-76
2021/11/25 01:35:00;;;;;;;10.10;6.30;;;11.40;86.20;;;;;;4973788;28;20026;-76
2021/11/25 01:37:27;;;;;;;12.05;6.47;;;11.40;86.00;;;;;;4974519;28;20090;-76
2021/11/25 01:39:54;;;;;;;13.00;6.85;;;11.30;85.90;;;;;;4973458;28;20094;-76
2021/11/25 01:42:20;;;;;;;10.52;6.70;;;11.30;85.80;;;;;;4971994;28;20031;-77
2021/11/25 01:44:45;;;;;;;14.10;6.47;;;11.40;85.60;;;;;;4972585;28;20033;-78
2021/11/25 01:47:11;;;;;;;14.65;6.13;;;11.40;85.80;;;;;;4973165;28;20027;-78
2021/11/25 01:49:36;;;;;;;11.43;6.15;;;11.40;85.70;;;;;;4973334;28;20066;-77
2021/11/25 01:52:03;;;;;;;10.85;6.40;;;11.40;85.60;;;;;;4974501;28;20080;-78
2021/11/25 01:54:30;;;;;;;10.95;6.60;;;11.40;86.10;;;;;;4973308;28;20038;-78
2021/11/25 01:56:56;;;;;;;11.15;6.50;;;11.40;85.60;;;;;;4974361;28;20109;-77
2021/11/25 01:59:23;;;;;;;9.45;6.07;;;11.40;85.50;;;;;;4973222;28;20029;-77
2021/11/25 02:01:48;;;;;;;8.93;6.40;;;11.40;85.40;;;;;;4973271;28;20512;-77
2021/11/25 02:04:14;;;;;;;10.77;6.10;;;11.30;85.40;;;;;;4974364;28;20113;-77
2021/11/25 02:06:41;;;;;;;11.68;7.03;;;11.30;85.40;;;;;;4972945;28;20033;-75
2021/11/25 02:09:08;;;;;;;8.73;5.90;;;11.40;85.60;;;;;;4974277;28;20026;-77
2021/11/25 02:11:33;;;;;;;10.30;6.55;;;11.40;85.70;;;;;;4973035;28;20027;-78
2021/11/25 02:13:59;;;;;;;9.25;6.35;;;11.30;85.50;;;;;;4973926;28;20468;-78
2021/11/25 02:16:25;;;;;;;11.18;6.47;;;11.40;85.70;;;;;;4973023;28;20047;-77
2021/11/25 02:18:50;;;;;;;10.93;6.60;;;11.30;85.70;;;;;;4972714;28;20023;-77
2021/11/25 02:21:17;;;;;;;8.85;6.47;;;11.30;85.80;;;;;;4974150;28;20030;-78
2021/11/25 02:23:43;;;;;;;9.90;6.47;;;11.20;85.90;;;;;;4974276;28;20081;-77
2021/11/25 02:26:08;;;;;;;8.80;6.30;;;11.30;86.00;;;;;;4972792;28;20031;-78
2021/11/25 02:28:36;;;;;;;9.35;6.65;;;11.20;86.00;;;;;;4972443;28;20494;-78
2021/11/25 02:31:03;;;;;;;9.48;5.90;;;11.30;86.10;;;;;;4972642;28;20050;-77
2021/11/25 02:33:29;;;;;;;9.68;6.45;;;11.30;86.10;;;;;;4974027;28;20057;-77
2021/11/25 02:35:55;;;;;;;10.48;6.68;;;11.20;86.10;;;;;;4972755;28;20054;-78
2021/11/25 02:38:22;;;;;;;9.00;6.55;;;11.30;86.10;;;;;;4973683;28;20019;-78
2021/11/25 02:40:50;;;;;;;9.80;6.53;;;11.20;86.10;;;;;;4971909;28;20030;-76
2021/11/25 02:43:24;;;;;;;9.20;6.30;;;11.30;86.10;;;;;;4972471;28;20053;-77
2021/11/25 02:45:59;;;;;;;9.20;6.10;;;11.20;86.10;;;;;;4972698;28;20041;-77
2021/11/25 02:48:28;;;;;;;8.20;6.22;;;11.20;86.10;;;;;;4972315;28;20117;-76
2021/11/25 02:50:55;;;;;;;9.73;6.38;;;11.20;86.10;;;;;;4972518;28;20031;-76
2021/11/25 02:53:24;;;;;;;8.68;6.53;;;11.20;86.10;;;;;;4996332;23;20051;-80
2021/11/25 02:55:53;;;;;;;8.43;6.40;;;11.20;86.10;;;;;;4971430;28;20046;-78
2021/11/25 02:58:18;;;;;;;10.63;6.70;;;11.20;86.10;;;;;;4972002;28;20057;-79
2021/11/25 03:00:47;;;;;;;9.82;6.30;;;11.20;86.10;;;;;;4972491;28;20445;-78
2021/11/25 03:03:15;;;;;;;9.02;6.25;;;11.30;86.10;;;;;;4972432;28;20038;-81
2021/11/25 03:05:43;;;;;;;8.82;6.22;;;11.20;86.10;;;;;;4972481;28;20034;-81
2021/11/25 03:08:10;;;;;;;10.38;6.57;;;11.20;86.10;;;;;;4988412;28;20031;-81
2021/11/25 03:10:46;;;;;;;10.20;7.07;;;11.10;86.00;;;;;;4972398;28;20030;-79
2021/11/25 03:13:14;;;;;;;8.05;5.72;;;11.20;86.10;;;;;;4988566;28;20030;-79
2021/11/25 03:15:40;;;;;;;9.02;6.30;;;11.20;86.10;;;;;;4988488;28;20023;-79
2021/11/25 03:18:08;;;;;;;8.93;6.18;;;11.10;86.00;;;;;;4988392;28;20059;-79
2021/11/25 03:20:35;;;;;;;9.20;6.88;;;11.20;86.10;;;;;;4973615;28;20054;-79
2021/11/25 03:23:00;;;;;;;9.00;6.30;;;11.30;86.10;;;;;;4964025;28;20677;-79
2021/11/25 03:25:26;;;;;;;9.90;6.53;;;11.30;86.10;;;;;;4968853;28;20027;-79
2021/11/25 03:27:52;;;;;;;7.90;6.28;;;11.20;86.00;;;;;;4953945;29;20493;-79
2021/11/25 03:30:18;;;;;;;9.48;6.88;;;11.20;86.00;;;;;;4952920;29;20034;-79
2021/11/25 03:32:44;;;;;;;8.73;6.35;;;11.10;86.00;;;;;;4952760;29;20027;-79
2021/11/25 03:35:10;;;;;;;7.75;5.90;;;11.20;86.00;;;;;;4954403;29;20026;-78
2021/11/25 03:37:36;;;;;;;8.93;6.47;;;11.20;86.00;;;;;;4952724;29;20082;-79
2021/11/25 03:40:04;;;;;;;8.45;6.25;;;11.20;86.00;;;;;;4952834;29;20057;-79
2021/11/25 03:42:30;;;;;;;8.25;5.93;;;11.20;86.00;;;;;;4952745;29;20123;-79
2021/11/25 03:44:56;;;;;;;9.20;6.55;;;11.20;86.00;;;;;;4952854;29;20062;-79
2021/11/25 03:47:21;;;;;;;9.90;6.63;;;11.00;85.90;;;;;;4952674;29;20027;-79
2021/11/25 03:49:47;;;;;;;8.85;6.20;;;11.20;86.00;;;;;;4952785;29;20027;-78
2021/11/25 03:52:12;;;;;;;8.85;6.70;;;11.10;86.00;;;;;;4952730;28;20034;-80
2021/11/25 03:54:38;;;;;;;9.75;6.75;;;11.20;86.00;;;;;;4956297;29;20078;-79
2021/11/25 03:57:04;;;;;;;9.77;6.93;;;11.20;86.00;;;;;;4956089;29;20023;-79
2021/11/25 03:59:30;;;;;;;9.50;6.65;;;11.20;86.00;;;;;;4957421;29;20135;-79
2021/11/25 04:01:55;;;;;;;9.38;6.53;;;11.30;86.00;;;;;;4956212;29;20060;-79
2021/11/25 04:04:21;;;;;;;9.93;6.70;;;11.20;86.00;;;;;;4957293;29;20059;-79
2021/11/25 04:06:47;;;;;;;10.52;6.55;;;11.20;86.00;;;;;;4955913;29;20027;-79
2021/11/25 04:09:12;;;;;;;9.88;6.80;;;11.20;86.00;;;;;;4956022;29;20031;-79
2021/11/25 04:11:38;;;;;;;10.48;6.63;;;11.20;86.00;;;;;;4955939;29;20059;-79
2021/11/25 04:14:04;;;;;;;10.27;6.68;;;11.10;85.90;;;;;;4955996;29;20551;-79
2021/11/25 04:16:30;;;;;;;8.90;6.65;;;11.20;86.00;;;;;;4955882;29;20122;-78
2021/11/25 04:18:57;;;;;;;11.23;6.93;;;11.20;86.00;;;;;;4955810;29;20078;-79
2021/11/25 04:21:23;;;;;;;9.60;6.50;;;11.30;86.10;;;;;;4955749;29;20047;-79
2021/11/25 04:23:49;;;;;;;10.05;6.38;;;11.10;85.90;;;;;;4955727;29;20046;-79
2021/11/25 04:26:15;;;;;;;10.05;6.88;;;11.20;86.00;;;;;;4955954;29;20113;-79
2021/11/25 04:28:40;;;;;;;11.00;7.05;;;11.20;86.00;;;;;;4955543;29;20404;-79
2021/11/25 04:36:34;;;;;;;12.57;7.38;;;11.20;86.10;;;;;;4957060;29;20057;-79
2021/11/25 04:39:00;;;;;;;10.15;7.32;;;11.10;86.00;;;;;;4955361;29;20114;-79
2021/11/25 04:41:26;;;;;;;11.27;7.45;;;11.30;86.10;;;;;;4955568;29;20078;-79
2021/11/25 04:43:51;;;;;;;10.63;7.80;;;11.30;86.20;;;;;;4955462;29;20027;-80
2021/11/25 04:46:17;;;;;;;10.07;7.18;;;11.20;86.10;;;;;;4955418;29;20031;-79
2021/11/25 04:48:43;;;;;;;9.95;7.28;;;11.10;86.00;;;;;;4956426;29;20038;-79
2021/11/25 04:51:09;;;;;;;9.93;7.20;;;11.20;86.10;;;;;;4956436;29;20559;-79
2021/11/25 04:53:34;;;;;;;9.60;7.35;;;11.20;86.10;;;;;;4971182;28;20043;-79
2021/11/25 04:56:00;;;;;;;11.40;7.57;;;11.10;86.00;;;;;;4955196;29;20401;-79
2021/11/25 04:58:26;;;;;;;10.93;7.60;;;11.10;86.10;;;;;;4956183;29;20015;-79
2021/11/25 05:00:52;;;;;;;9.00;7.22;;;11.10;86.10;;;;;;4955015;29;20378;-79
2021/11/25 05:03:18;;;;;;;10.77;7.35;;;11.20;86.10;;;;;;4954918;28;20125;-79
2021/11/25 05:05:44;;;;;;;10.70;8.00;;;11.20;86.10;;;;;;4954249;29;20038;-79
2021/11/25 05:08:10;;;;;;;9.77;8.05;;;11.20;86.70;;;;;;4954818;29;20023;-79
2021/11/25 05:10:36;;;;;;;10.40;7.68;;;11.10;86.00;;;;;;4954810;29;20023;-79
2021/11/25 05:13:02;;;;;;;9.88;7.63;;;11.20;86.20;;;;;;4956031;29;20027;-78
2021/11/25 05:15:28;;;;;;;9.65;7.63;;;11.20;86.10;;;;;;4956056;29;20020;-79
2021/11/25 05:17:54;;;;;;;9.38;7.65;;;11.30;86.30;;;;;;4954657;29;20019;-79
2021/11/25 05:20:20;;;;;;;10.23;7.22;;;11.20;86.20;;;;;;4970902;28;20033;-79
2021/11/25 05:22:46;;;;;;;11.80;7.88;;;11.10;86.10;;;;;;4957818;28;20066;-78
2021/11/25 05:25:15;;;;;;;10.60;8.45;;;11.20;86.00;;;;;;4986542;28;20118;-79
2021/11/25 05:27:41;;;;;;;11.10;8.18;;;11.20;85.90;;;;;;4989799;28;20022;-79
2021/11/25 05:30:09;;;;;;;10.55;7.68;;;11.40;86.00;;;;;;4990010;28;20069;-79
2021/11/25 05:32:35;;;;;;;10.82;8.20;;;11.20;85.80;;;;;;4974930;28;20034;-79
2021/11/25 05:35:00;;;;;;;10.95;7.90;;;11.30;85.80;;;;;;4979927;28;20023;-79
2021/11/25 05:37:26;;;;;;;10.73;8.27;;;11.10;85.60;;;;;;4970275;28;20047;-81
2021/11/25 05:39:51;;;;;;;9.95;7.88;;;11.30;85.70;;;;;;4953738;29;20463;-79
2021/11/25 05:42:18;;;;;;;11.13;8.80;;;11.30;85.60;;;;;;4951542;29;20035;-80
2021/11/25 05:44:44;;;;;;;11.25;8.77;;;11.20;85.60;;;;;;4951867;29;20500;-79
2021/11/25 05:47:10;;;;;;;12.57;9.27;;;11.40;85.60;;;;;;4960172;28;20039;-78
2021/11/25 05:49:36;;;;;;;11.35;8.77;;;11.30;85.50;;;;;;4951223;29;20453;-78
2021/11/25 05:52:02;;;;;;;11.98;8.93;;;11.30;85.60;;;;;;4950822;29;20036;-77
2021/11/25 05:54:28;;;;;;;11.55;8.70;;;11.30;85.40;;;;;;4952424;29;20035;-78
2021/11/25 05:56:53;;;;;;;11.48;9.27;;;11.20;85.40;;;;;;4952204;29;20210;-78
2021/11/25 05:59:19;;;;;;;10.98;8.90;;;11.30;85.50;;;;;;4952683;29;20031;-79
2021/11/25 06:01:45;;;;;;;12.32;10.07;;;11.30;85.40;;;;;;4950963;29;20082;-80
2021/11/25 06:04:10;;;;;;;12.52;9.50;;;11.20;85.30;;;;;;4950853;29;20468;-79
2021/11/25 06:06:36;;;;;;;12.18;9.70;;;11.10;85.00;;;;;;4951068;29;20035;-78
2021/11/25 06:09:02;;;;;;;11.88;9.82;;;11.20;85.10;;;;;;4951645;29;20023;-78
2021/11/25 06:11:28;;;;;;;12.70;10.40;;;11.20;85.20;;;;;;4952298;28;20792;-79
2021/11/25 06:13:53;;;;;;;12.68;10.25;;;11.20;85.30;;;;;;4987327;28;20026;-77
2021/11/25 06:16:19;;;;;;;12.23;9.93;;;11.20;85.40;;;;;;4971937;28;20026;-77
2021/11/25 06:18:45;;;;;;;13.02;10.48;;;11.10;85.40;;;;;;4986976;28;20546;-77
2021/11/25 06:21:11;;;;;;;12.90;9.90;;;11.20;85.60;;;;;;4970861;28;20039;-79
2021/11/25 06:23:36;;;;;;;15.52;10.68;;;11.00;86.00;;;;;;4987046;28;20975;-78
2021/11/25 06:26:03;;;;;;;12.23;10.25;;;11.10;85.50;;;;;;4972536;28;20118;-78
2021/11/25 06:28:29;;;;;;;14.82;10.65;;;11.00;85.50;;;;;;4971736;28;20027;-78
2021/11/25 06:30:54;;;;;;;11.98;10.15;;;11.10;85.60;;;;;;4972464;28;20042;-76
2021/11/25 06:33:20;;;;;;;14.65;11.65;;;11.10;84.90;;;;;;4972019;28;20031;-78
2021/11/25 06:35:46;;;;;;;17.48;11.88;;;10.90;78.70;;;;;;4972998;28;20027;-77
2021/11/25 06:38:12;;;;;;;14.20;11.23;;;10.90;78.70;;;;;;4971460;28;20030;-77
2021/11/25 06:40:38;;;;;;;13.80;10.82;;;10.90;81.30;;;;;;4973095;28;20035;-79
2021/11/25 06:43:07;;;;;;;13.02;11.27;;;10.80;82.40;;;;;;4971025;28;20029;-78
2021/11/25 06:45:34;;;;;;;13.88;11.88;;;11.00;83.20;;;;;;4971792;28;20433;-79
2021/11/25 06:48:01;;;;;;;12.95;10.68;;;11.00;82.60;;;;;;4968135;28;20484;-78
2021/11/25 06:50:27;;;;;;;14.27;11.75;;;11.00;83.40;;;;;;4969518;28;20035;-77
2021/11/25 06:52:53;;;;;;;13.30;10.95;;;10.80;83.60;;;;;;4967786;28;20041;-78
2021/11/25 06:55:19;;;;;;;12.60;11.15;;;11.00;83.90;;;;;;4967670;28;20026;-78
2021/11/25 06:57:50;;;;;;;14.45;11.52;;;11.00;84.20;;;;;;4967185;28;20023;-79
2021/11/25 07:00:18;;;;;;;14.05;11.07;;;11.00;84.30;;;;;;4968747;28;20038;-79
2021/11/25 07:02:44;;;;;;;14.02;11.55;;;11.00;84.50;;;;;;4966381;28;20696;-78
2021/11/25 07:05:10;;;;;;;14.00;12.02;;;10.90;84.60;;;;;;4969565;28;20396;-77
2021/11/25 07:07:37;;;;;;;14.13;11.20;;;10.90;84.60;;;;;;4969679;28;20062;-76
2021/11/25 07:10:05;;;;;;;14.93;11.27;;;11.10;84.70;;;;;;4970144;28;20034;-77
2021/11/25 07:12:31;;;;;;;14.30;12.00;;;11.00;84.70;;;;;;4970067;28;20062;-77
2021/11/25 07:14:57;;;;;;;15.50;12.45;;;11.10;84.80;;;;;;4970512;28;20571;-78
2021/11/25 07:17:23;;;;;;;13.65;12.23;;;11.00;84.80;;;;;;4971481;28;20449;-77
2021/11/25 07:19:48;;;;;;;14.07;12.02;;;11.00;84.90;;;;;;4969482;28;20054;-79
2021/11/25 07:22:14;;;;;;;14.57;11.88;;;10.90;84.80;;;;;;4954626;28;20408;-78
2021/11/25 07:24:40;;;;;;;14.05;11.90;;;11.00;84.80;;;;;;4951917;29;20034;-78
2021/11/25 07:27:06;;;;;;;13.13;11.57;;;11.10;84.80;;;;;;4952989;28;20106;-78
2021/11/25 07:29:32;;;;;;;13.70;11.85;;;11.10;84.70;;;;;;4955577;29;20123;-78
2021/11/25 07:31:57;;;;;;;14.80;12.05;;;11.10;84.70;;;;;;4953858;29;20077;-80
2021/11/25 07:34:23;;;;;;;17.02;12.13;;;11.10;84.70;;;;;;4952552;28;20101;-77
2021/11/25 07:36:48;;;;;;;16.23;12.48;;;11.30;84.60;;;;;;4951923;28;20030;-78
2021/11/25 07:39:14;;;;;;;20.50;12.90;;;11.00;84.40;;;;;;4952278;29;20023;-77
2021/11/25 07:41:40;;;;;;;15.50;12.45;;;11.20;84.50;;;;;;4951876;28;20408;-77
2021/11/25 07:44:07;;;;;;;15.35;12.60;;;11.20;84.50;;;;;;4953502;29;20035;-77
2021/11/25 07:46:34;;;;;;;15.77;12.35;;;11.10;84.50;;;;;;4951915;28;20617;-78
2021/11/25 07:49:01;;;;;;;15.93;13.25;;;11.10;84.20;;;;;;4963259;28;20085;-78
2021/11/25 07:51:27;;;;;;;20.90;14.73;;;11.00;81.80;;;;;;4976519;28;20027;-78
2021/11/25 07:53:52;;;;;;;18.25;13.02;;;11.10;82.40;;;;;;4991852;28;20041;-77
2021/11/25 07:56:18;;;;;;;14.98;12.38;;;11.20;82.80;;;;;;4976906;28;20527;-78
2021/11/25 07:58:43;;;;;;;16.15;12.90;;;11.00;82.90;;;;;;4976269;28;20023;-76
2021/11/25 08:01:09;;;;;;;17.45;13.27;;;11.20;83.00;;;;;;4976392;28;20027;-77
2021/11/25 08:03:34;;;;;;;15.27;13.07;;;11.30;83.20;;;;;;4975172;28;20054;-78
2021/11/25 08:06:00;;;;;;;16.52;13.82;;;11.30;83.10;;;;;;4975776;28;20031;-76
2021/11/25 08:08:26;;;;;;;17.88;13.02;;;11.20;83.00;;;;;;4975935;28;20440;-78
2021/11/25 08:10:51;;;;;;;16.13;13.15;;;11.30;83.10;;;;;;4976438;28;20904;-78
2021/11/25 08:13:17;;;;;;;14.57;12.93;;;11.40;83.10;;;;;;4974591;28;20122;-77
2021/11/25 08:15:43;;;;;;;15.57;13.18;;;11.40;83.10;;;;;;4975884;28;20074;-78
2021/11/25 08:18:08;;;;;;;16.63;13.27;;;11.30;83.10;;;;;;4975812;28;20065;-77
2021/11/25 08:20:34;;;;;;;15.00;13.20;;;11.40;83.10;;;;;;4975686;28;20115;-77
2021/11/25 08:23:00;;;;;;;15.82;13.07;;;11.50;83.00;;;;;;4976084;28;20439;-79
2021/11/25 08:25:26;;;;;;;19.52;14.52;;;11.40;82.90;;;;;;4976918;28;20038;-77
2021/11/25 08:27:55;;;;;;;18.08;14.10;;;11.30;80.60;;;;;;4975587;28;20050;-79
2021/11/25 08:30:23;;;;;;;18.83;14.55;;;11.20;79.70;;;;;;4977077;28;20506;-77
2021/11/25 08:32:49;;;;;;;17.77;13.60;;;11.30;80.60;;;;;;4975749;28;20117;-77
2021/11/25 08:35:15;;;;;;;18.30;14.38;;;11.30;81.30;;;;;;4977319;28;20050;-77
2021/11/25 08:37:42;;;;;;;17.92;14.30;;;11.30;81.80;;;;;;4976710;28;20381;-77
2021/11/25 08:40:10;;;;;;;16.58;13.80;;;11.30;82.10;;;;;;4976857;28;20118;-77
2021/11/25 08:42:36;;;;;;;17.92;14.23;;;11.30;82.50;;;;;;4978214;28;20432;-77
2021/11/25 08:45:03;;;;;;;20.77;13.93;;;11.30;82.70;;;;;;4977210;28;20033;-77
2021/11/25 08:47:28;;;;;;;17.42;14.75;;;11.30;82.80;;;;;;4977612;28;20031;-77
2021/11/25 08:49:54;;;;;;;17.33;14.48;;;11.30;82.90;;;;;;4978056;28;20037;-77
2021/11/25 08:52:20;;;;;;;17.92;13.88;;;11.30;83.00;;;;;;4978515;28;20030;-78
2021/11/25 08:54:45;;;;;;;18.48;14.45;;;11.20;83.00;;;;;;5044455;23;20512;-80
2021/11/25 08:57:11;;;;;;;18.25;15.02;;;11.30;83.20;;;;;;4979134;28;20033;-79
2021/11/25 08:59:37;;;;;;;19.80;15.23;;;11.20;83.30;;;;;;4993182;28;20019;-79
2021/11/25 09:02:03;;;;;;;21.33;15.25;;;11.30;83.40;;;;;;4993443;28;20085;-77
2021/11/25 09:04:30;;;;;;;18.42;15.00;;;11.30;83.50;;;;;;4978817;28;20030;-78
2021/11/25 09:06:56;;;;;;;18.67;15.02;;;11.30;83.50;;;;;;4974955;28;20027;-78
2021/11/25 09:09:22;;;;;;;18.35;14.95;;;11.30;83.50;;;;;;4973759;28;20023;-79
2021/11/25 09:11:48;;;;;;;18.35;14.70;;;11.30;83.60;;;;;;4973668;28;20035;-78
2021/11/25 09:14:14;;;;;;;19.02;14.85;;;11.30;83.60;;;;;;4973191;28;20499;-78
2021/11/25 09:16:41;;;;;;;19.92;15.68;;;11.30;83.70;;;;;;4974909;28;20034;-79
2021/11/25 09:19:06;;;;;;;18.50;15.48;;;11.30;83.70;;;;;;4974934;28;20055;-81
2021/11/25 09:21:32;;;;;;;18.45;15.25;;;11.30;83.70;;;;;;4974761;28;20112;-78
2021/11/25 09:23:59;;;;;;;18.85;15.80;;;11.20;83.60;;;;;;4973635;28;20035;-77
2021/11/25 09:26:25;;;;;;;19.33;15.75;;;11.30;83.70;;;;;;4973652;28;20027;-78
2021/11/25 09:28:51;;;;;;;18.70;15.48;;;11.30;83.80;;;;;;4973450;28;20122;-79
2021/11/25 09:31:18;;;;;;;19.05;15.63;;;11.30;83.70;;;;;;4974540;28;20029;-77
2021/11/25 09:33:44;;;;;;;19.35;16.33;;;11.30;83.60;;;;;;4973321;28;20042;-79
2021/11/25 09:36:10;;;;;;;18.60;14.95;;;11.30;83.50;;;;;;4974476;28;20106;-79
2021/11/25 09:38:36;;;;;;;19.15;16.00;;;11.30;83.50;;;;;;4973220;28;20134;-79
2021/11/25 09:41:02;;;;;;;19.48;16.23;;;11.30;83.50;;;;;;4974714;28;20030;-79
2021/11/25 09:43:28;;;;;;;21.08;16.77;;;11.20;83.40;;;;;;4973017;28;20031;-79
2021/11/25 09:45:54;;;;;;;20.00;15.57;;;11.40;83.40;;;;;;4974691;28;20570;-77
2021/11/25 09:48:23;;;;;;;19.48;16.63;;;11.30;83.40;;;;;;4973040;28;20059;-81
2021/11/25 09:50:52;;;;;;;18.05;15.50;;;11.30;83.30;;;;;;4972415;28;20058;-79
2021/11/25 09:53:21;;;;;;;19.25;15.75;;;11.40;83.40;;;;;;4972919;28;20031;-77
2021/11/25 09:55:49;;;;;;;19.83;16.48;;;11.40;83.40;;;;;;4973421;28;20538;-79
2021/11/25 09:58:17;;;;;;;18.95;16.67;;;11.40;83.30;;;;;;4974080;28;20477;-80
2021/11/25 10:00:51;;;;;;;19.27;16.35;;;11.30;83.20;;;;;;4974226;28;20041;-77
2021/11/25 10:03:18;;;;;;;20.58;16.88;;;11.30;83.20;;;;;;4972943;28;20030;-77
2021/11/25 10:05:50;;;;;;;19.13;16.55;;;11.30;83.40;;;;;;4972803;28;20038;-79
2021/11/25 10:08:44;;;;;;;20.83;17.10;;;11.30;83.50;;;;;;4973896;28;20018;-77
2021/11/25 10:11:13;;;;;;;19.77;16.40;;;11.30;83.60;;;;;;4972765;28;20056;-80
2021/11/25 10:13:44;;;;;;;22.67;18.38;;;11.30;83.70;;;;;;4972286;28;20084;-77
2021/11/25 10:16:14;;;;;;;20.35;17.75;;;11.20;83.70;;;;;;4973865;28;20038;-80
2021/11/25 10:18:40;;;;;;;20.92;17.33;;;11.30;83.80;;;;;;4972363;28;20496;-77
2021/11/25 10:21:09;;;;;;;19.77;17.60;;;11.20;83.80;;;;;;4973850;28;20492;-79
2021/11/25 10:23:36;;;;;;;21.83;17.95;;;11.30;84.00;;;;;;4972391;28;20480;-78
2021/11/25 10:26:05;;;;;;;20.40;17.25;;;11.20;84.00;;;;;;4973733;28;20085;-77
2021/11/25 10:28:42;;;;;;;21.70;17.65;;;11.20;84.10;;;;;;4972116;28;20452;-77
2021/11/25 10:31:18;;;;;;;19.65;17.02;;;11.10;84.10;;;;;;4973464;28;20181;-77
2021/11/25 10:42:17;;;;;;;20.98;18.00;;;11.10;84.20;;;;;;4973528;28;20054;-77
2021/11/25 10:44:52;;;;;;;20.45;17.38;;;11.00;84.20;;;;;;4971988;28;20031;-79
2021/11/25 10:47:20;;;;;;;20.80;17.65;;;11.10;84.30;;;;;;4973111;28;20022;-77
2021/11/25 10:50:00;;;;;;;20.13;17.48;;;11.10;84.20;;;;;;4972156;28;20042;-77
2021/11/25 10:52:37;;;;;;;20.50;17.83;;;11.10;84.20;;;;;;4973319;28;20019;-77
2021/11/25 10:55:14;;;;;;;20.35;17.80;;;11.10;84.20;;;;;;4971807;28;20037;-77
2021/11/25 10:57:48;;;;;;;21.00;17.75;;;11.10;84.10;;;;;;4973093;28;20027;-79
2021/11/25 11:00:23;;;;;;;21.05;18.17;;;11.10;84.10;;;;;;4972031;28;20034;-80
2021/11/25 11:03:04;;;;;;;22.33;18.73;;;11.20;84.20;;;;;;4974540;28;20109;-77
2021/11/25 11:05:31;;;;;;;21.55;19.02;;;11.20;84.20;;;;;;4976286;28;20529;-77
2021/11/25 11:08:06;;;;;;;20.30;17.10;;;11.10;84.20;;;;;;4977012;28;20449;-77
2021/11/25 11:10:32;;;;;;;21.55;18.73;;;11.10;84.10;;;;;;4975947;28;20480;-77
2021/11/25 11:13:22;;;;;;;20.65;17.67;;;11.20;84.20;;;;;;4975768;28;20037;-77
2021/11/25 11:15:55;;;;;;;19.80;17.60;;;11.20;84.20;;;;;;4977174;28;20058;-77
2021/11/25 11:18:44;;;;;;;20.63;18.15;;;11.10;84.10;;;;;;4975618;28;20041;-77
2021/11/25 11:21:34;;;;;;;21.17;18.15;;;11.20;84.10;;;;;;4975851;28;20117;-77
2021/11/25 11:24:05;;;;;;;22.10;18.15;;;11.20;84.00;;;;;;4975667;28;20031;-78
2021/11/25 11:26:31;;;;;;;20.27;18.08;;;11.10;84.00;;;;;;4976900;28;20111;-76
2021/11/25 11:28:57;;;;;;;22.60;18.65;;;11.20;84.00;;;;;;4975456;28;20031;-77
2021/11/25 11:31:23;;;;;;;21.65;18.70;;;11.10;83.90;;;;;;4975419;28;20037;-77
2021/11/25 11:33:49;;;;;;;19.92;17.83;;;11.20;84.00;;;;;;4975642;28;20479;-78
2021/11/25 11:36:15;;;;;;;21.23;17.85;;;11.20;84.00;;;;;;4975493;28;20447;-78
2021/11/25 11:38:42;;;;;;;19.45;17.35;;;11.20;84.00;;;;;;4975223;28;20027;-78
2021/11/25 11:41:09;;;;;;;21.60;18.00;;;11.10;83.90;;;;;;4975676;28;20288;-77
2021/11/25 11:43:36;;;;;;;19.65;17.55;;;11.10;83.90;;;;;;4975311;28;20539;-77
2021/11/25 11:46:02;;;;;;;20.52;17.85;;;11.20;83.90;;;;;;4976598;28;20027;-77
2021/11/25 11:48:31;;;;;;;19.90;17.65;;;11.10;83.90;;;;;;4974998;28;20054;-77
2021/11/25 11:50:57;;;;;;;21.67;18.33;;;11.20;84.00;;;;;;4975197;28;20030;-77
2021/11/25 11:53:25;;;;;;;19.42;17.25;;;11.20;83.90;;;;;;4975180;28;20093;-80
2021/11/25 11:55:58;;;;;;;21.50;18.20;;;11.10;84.00;;;;;;4976414;28;20057;-79
2021/11/25 11:58:32;;;;;;;19.83;17.70;;;11.20;84.00;;;;;;4976078;28;20027;-77
2021/11/25 12:01:12;;;;;;;20.33;18.13;;;11.10;84.10;;;;;;4975206;28;20026;-77
2021/11/25 12:03:40;;;;;;;20.20;17.98;;;11.10;84.00;;;;;;4974999;28;20023;-77
2021/11/25 12:06:08;;;;;;;20.17;17.65;;;11.10;84.00;;;;;;4975216;28;20034;-79
2021/11/25 12:08:37;;;;;;;19.98;17.42;;;11.10;84.00;;;;;;4976098;28;20030;-80
2021/11/25 12:11:04;;;;;;;20.42;18.23;;;11.00;83.90;;;;;;4974972;28;20040;-79
2021/11/25 12:13:54;;;;;;;20.00;17.65;;;11.00;83.80;;;;;;4975092;28;20030;-78
2021/11/25 12:16:19;;;;;;;20.50;17.45;;;11.10;83.70;;;;;;4974730;28;20037;-79
2021/11/25 12:18:56;;;;;;;20.98;17.73;;;11.10;83.60;;;;;;4975818;28;20476;-78
2021/11/25 12:21:46;;;;;;;19.42;17.10;;;11.10;83.50;;;;;;4974894;28;20026;-78
2021/11/25 12:24:17;;;;;;;19.05;16.60;;;11.10;83.40;;;;;;4975981;28;20550;-78
2021/11/25 12:27:11;;;;;;;19.25;16.90;;;11.10;83.40;;;;;;4975666;28;20397;-77
2021/11/25 12:30:09;;;;;;;19.20;17.10;;;11.10;83.40;;;;;;4974600;28;20118;-78
2021/11/25 12:33:01;;;;;;;20.00;17.60;;;11.10;83.40;;;;;;4974485;28;20385;-79
2021/11/25 12:35:39;;;;;;;20.10;17.85;;;11.10;83.40;;;;;;4975274;28;20031;-79
2021/11/25 12:38:17;;;;;;;19.77;17.40;;;11.10;83.30;;;;;;4975377;28;20044;-80
2021/11/25 12:40:51;;;;;;;20.85;17.85;;;11.00;83.20;;;;;;4975707;28;20031;-79
2021/11/25 12:43:33;;;;;;;20.85;18.33;;;11.10;83.20;;;;;;4975548;28;20023;-78
2021/11/25 12:46:07;;;;;;;20.95;17.45;;;11.10;83.20;;;;;;4965802;28;20039;-78
2021/11/25 12:48:41;;;;;;;19.73;17.60;;;11.10;83.10;;;;;;4967582;28;20110;-79
2021/11/25 12:51:17;;;;;;;19.05;17.05;;;11.10;83.10;;;;;;4970380;28;20072;-78